sensor_id;sensor_type;location;lat;lon;timestamp;P1;durP1;ratioP1;P2;durP2;ratioP2
11614;SDS011;5863;52.832;4.758;2023-03-09T00:01:19;9.77;;;6.70;;
11614;SDS011;5863;52.832;4.758;2023-03-09T00:03:47;9.33;;;6.53;;
11614;SDS011;5863;52.832;4.758;2023-03-09T00:06:14;9.57;;;6.73;;
11614;SDS011;5863;52.832;4.758;2023-03-09T00:08:41;10.90;;;6.40;;
11614;SDS011;5863;52.832;4.758;2023-03-09T00:11:08;10.50;;;6.70;;
11614;SDS011;5863;52.832;4.758;2023-03-09T00:13:37;7.77;;;5.90;;
11614;SDS011;5863;52.832;4.758;2023-03-09T00:16:07;9.13;;;6.57;;
11614;SDS011;5863;52.832;4.758;2023-03-09T00:18:38;9.83;;;6.83;;
11614;SDS011;5863;52.832;4.758;2023-03-09T00:21:05;11.87;;;7.07;;
11614;SDS011;5863;52.832;4.758;2023-03-09T00:23:32;10.13;;;6.90;;
11614;SDS011;5863;52.832;4.758;2023-03-09T00:26:01;13.40;;;7.30;;
11614;SDS011;5863;52.832;4.758;2023-03-09T00:28:29;13.63;;;7.60;;
11614;SDS011;5863;52.832;4.758;2023-03-09T00:31:01;9.77;;;7.03;;
11614;SDS011;5863;52.832;4.758;2023-03-09T00:33:29;11.13;;;7.07;;
11614;SDS011;5863;52.832;4.758;2023-03-09T00:35:56;10.90;;;7.00;;
11614;SDS011;5863;52.832;4.758;2023-03-09T00:38:23;10.10;;;7.03;;
11614;SDS011;5863;52.832;4.758;2023-03-09T00:40:50;12.00;;;8.23;;
11614;SDS011;5863;52.832;4.758;2023-03-09T00:43:17;12.93;;;8.23;;
11614;SDS011;5863;52.832;4.758;2023-03-09T00:45:43;11.10;;;7.83;;
11614;SDS011;5863;52.832;4.758;2023-03-09T00:48:11;12.13;;;7.80;;
11614;SDS011;5863;52.832;4.758;2023-03-09T00:50:38;13.33;;;8.37;;
11614;SDS011;5863;52.832;4.758;2023-03-09T00:53:05;12.67;;;8.67;;
11614;SDS011;5863;52.832;4.758;2023-03-09T00:55:32;11.83;;;8.27;;
11614;SDS011;5863;52.832;4.758;2023-03-09T00:57:59;12.77;;;8.23;;
11614;SDS011;5863;52.832;4.758;2023-03-09T01:00:26;14.30;;;9.40;;
11614;SDS011;5863;52.832;4.758;2023-03-09T01:02:52;14.47;;;9.13;;
11614;SDS011;5863;52.832;4.758;2023-03-09T01:05:21;15.40;;;9.43;;
11614;SDS011;5863;52.832;4.758;2023-03-09T01:07:48;14.33;;;9.37;;
11614;SDS011;5863;52.832;4.758;2023-03-09T01:10:14;15.53;;;10.27;;
11614;SDS011;5863;52.832;4.758;2023-03-09T01:12:42;14.23;;;10.07;;
11614;SDS011;5863;52.832;4.758;2023-03-09T01:15:09;14.87;;;9.87;;
11614;SDS011;5863;52.832;4.758;2023-03-09T01:17:38;15.43;;;10.30;;
11614;SDS011;5863;52.832;4.758;2023-03-09T01:20:06;16.33;;;10.10;;
11614;SDS011;5863;52.832;4.758;2023-03-09T01:22:35;13.73;;;9.33;;
11614;SDS011;5863;52.832;4.758;2023-03-09T01:25:02;15.63;;;9.33;;
11614;SDS011;5863;52.832;4.758;2023-03-09T01:27:37;13.43;;;9.13;;
11614;SDS011;5863;52.832;4.758;2023-03-09T01:30:04;15.80;;;10.00;;
11614;SDS011;5863;52.832;4.758;2023-03-09T01:32:32;14.37;;;10.10;;
11614;SDS011;5863;52.832;4.758;2023-03-09T01:34:58;15.03;;;9.97;;
11614;SDS011;5863;52.832;4.758;2023-03-09T01:37:25;18.67;;;10.23;;
11614;SDS011;5863;52.832;4.758;2023-03-09T01:39:53;15.20;;;10.33;;
11614;SDS011;5863;52.832;4.758;2023-03-09T01:42:20;16.17;;;9.97;;
11614;SDS011;5863;52.832;4.758;2023-03-09T01:47:58;13.20;;;9.47;;
11614;SDS011;5863;52.832;4.758;2023-03-09T01:50:25;16.23;;;9.67;;
11614;SDS011;5863;52.832;4.758;2023-03-09T01:52:55;14.47;;;9.27;;
11614;SDS011;5863;52.832;4.758;2023-03-09T01:55:29;13.67;;;9.00;;
11614;SDS011;5863;52.832;4.758;2023-03-09T01:58:01;12.73;;;8.73;;
11614;SDS011;5863;52.832;4.758;2023-03-09T02:00:31;13.80;;;8.73;;
11614;SDS011;5863;52.832;4.758;2023-03-09T02:03:00;13.43;;;8.50;;
11614;SDS011;5863;52.832;4.758;2023-03-09T02:05:31;13.53;;;8.60;;
11614;SDS011;5863;52.832;4.758;2023-03-09T02:08:01;13.30;;;8.23;;
11614;SDS011;5863;52.832;4.758;2023-03-09T02:10:30;11.17;;;8.53;;
11614;SDS011;5863;52.832;4.758;2023-03-09T02:13:01;12.70;;;8.87;;
11614;SDS011;5863;52.832;4.758;2023-03-09T02:15:32;9.90;;;7.30;;
11614;SDS011;5863;52.832;4.758;2023-03-09T02:17:59;12.93;;;8.27;;
11614;SDS011;5863;52.832;4.758;2023-03-09T02:20:28;11.87;;;8.30;;
11614;SDS011;5863;52.832;4.758;2023-03-09T02:22:59;12.10;;;8.53;;
11614;SDS011;5863;52.832;4.758;2023-03-09T02:25:28;14.43;;;9.17;;
11614;SDS011;5863;52.832;4.758;2023-03-09T02:28:00;13.20;;;8.70;;
11614;SDS011;5863;52.832;4.758;2023-03-09T02:30:28;14.57;;;9.20;;
11614;SDS011;5863;52.832;4.758;2023-03-09T02:33:02;10.83;;;7.70;;
11614;SDS011;5863;52.832;4.758;2023-03-09T02:35:30;15.07;;;9.00;;
11614;SDS011;5863;52.832;4.758;2023-03-09T02:37:57;11.73;;;7.90;;
11614;SDS011;5863;52.832;4.758;2023-03-09T02:40:25;12.40;;;7.80;;
11614;SDS011;5863;52.832;4.758;2023-03-09T02:42:57;10.60;;;8.00;;
11614;SDS011;5863;52.832;4.758;2023-03-09T02:45:28;12.60;;;8.03;;
11614;SDS011;5863;52.832;4.758;2023-03-09T02:47:56;10.37;;;7.87;;
11614;SDS011;5863;52.832;4.758;2023-03-09T02:50:23;10.83;;;7.73;;
11614;SDS011;5863;52.832;4.758;2023-03-09T02:52:51;10.87;;;8.00;;
11614;SDS011;5863;52.832;4.758;2023-03-09T02:55:18;10.17;;;7.17;;
11614;SDS011;5863;52.832;4.758;2023-03-09T02:57:45;8.97;;;6.60;;
11614;SDS011;5863;52.832;4.758;2023-03-09T03:00:12;11.10;;;6.97;;
11614;SDS011;5863;52.832;4.758;2023-03-09T03:02:42;9.53;;;6.80;;
11614;SDS011;5863;52.832;4.758;2023-03-09T03:05:09;8.83;;;6.50;;
11614;SDS011;5863;52.832;4.758;2023-03-09T03:07:36;9.97;;;7.37;;
11614;SDS011;5863;52.832;4.758;2023-03-09T03:10:02;9.73;;;6.90;;
11614;SDS011;5863;52.832;4.758;2023-03-09T03:12:29;10.43;;;6.17;;
11614;SDS011;5863;52.832;4.758;2023-03-09T03:14:57;11.13;;;7.67;;
11614;SDS011;5863;52.832;4.758;2023-03-09T03:17:24;10.27;;;6.97;;
11614;SDS011;5863;52.832;4.758;2023-03-09T03:19:52;10.80;;;7.30;;
11614;SDS011;5863;52.832;4.758;2023-03-09T03:22:19;14.60;;;7.70;;
11614;SDS011;5863;52.832;4.758;2023-03-09T03:24:46;11.63;;;7.53;;
11614;SDS011;5863;52.832;4.758;2023-03-09T03:27:13;9.43;;;7.33;;
11614;SDS011;5863;52.832;4.758;2023-03-09T03:29:39;10.37;;;6.93;;
11614;SDS011;5863;52.832;4.758;2023-03-09T03:32:06;10.60;;;7.40;;
11614;SDS011;5863;52.832;4.758;2023-03-09T03:34:33;9.93;;;7.73;;
11614;SDS011;5863;52.832;4.758;2023-03-09T03:37:02;12.13;;;6.90;;
11614;SDS011;5863;52.832;4.758;2023-03-09T03:39:28;11.23;;;7.33;;
11614;SDS011;5863;52.832;4.758;2023-03-09T03:41:55;9.00;;;6.77;;
11614;SDS011;5863;52.832;4.758;2023-03-09T03:44:21;10.67;;;7.23;;
11614;SDS011;5863;52.832;4.758;2023-03-09T03:46:48;11.57;;;8.07;;
11614;SDS011;5863;52.832;4.758;2023-03-09T03:49:15;10.93;;;7.37;;
11614;SDS011;5863;52.832;4.758;2023-03-09T03:51:41;9.37;;;7.37;;
11614;SDS011;5863;52.832;4.758;2023-03-09T03:54:09;10.07;;;7.63;;
11614;SDS011;5863;52.832;4.758;2023-03-09T03:56:36;10.93;;;7.60;;
11614;SDS011;5863;52.832;4.758;2023-03-09T03:59:03;11.43;;;7.83;;
11614;SDS011;5863;52.832;4.758;2023-03-09T04:01:29;11.20;;;7.80;;
11614;SDS011;5863;52.832;4.758;2023-03-09T04:03:56;12.03;;;8.13;;
11614;SDS011;5863;52.832;4.758;2023-03-09T04:06:23;11.90;;;8.17;;
11614;SDS011;5863;52.832;4.758;2023-03-09T04:08:49;10.70;;;7.67;;
11614;SDS011;5863;52.832;4.758;2023-03-09T04:11:17;11.03;;;7.13;;
11614;SDS011;5863;52.832;4.758;2023-03-09T04:13:46;9.67;;;7.63;;
11614;SDS011;5863;52.832;4.758;2023-03-09T04:16:13;10.33;;;7.73;;
11614;SDS011;5863;52.832;4.758;2023-03-09T04:18:40;12.87;;;7.70;;
11614;SDS011;5863;52.832;4.758;2023-03-09T04:21:07;11.77;;;7.70;;
11614;SDS011;5863;52.832;4.758;2023-03-09T04:23:33;12.03;;;7.80;;
11614;SDS011;5863;52.832;4.758;2023-03-09T04:26:01;10.23;;;7.43;;
11614;SDS011;5863;52.832;4.758;2023-03-09T04:28:31;12.87;;;8.53;;
11614;SDS011;5863;52.832;4.758;2023-03-09T04:30:57;9.50;;;7.30;;
11614;SDS011;5863;52.832;4.758;2023-03-09T04:33:24;9.97;;;7.20;;
11614;SDS011;5863;52.832;4.758;2023-03-09T04:35:50;9.97;;;7.60;;
11614;SDS011;5863;52.832;4.758;2023-03-09T04:38:17;12.03;;;8.03;;
11614;SDS011;5863;52.832;4.758;2023-03-09T04:40:44;9.57;;;6.93;;
11614;SDS011;5863;52.832;4.758;2023-03-09T04:43:10;11.23;;;7.07;;
11614;SDS011;5863;52.832;4.758;2023-03-09T04:45:38;10.33;;;7.60;;
11614;SDS011;5863;52.832;4.758;2023-03-09T04:48:05;9.90;;;7.23;;
11614;SDS011;5863;52.832;4.758;2023-03-09T04:50:32;10.83;;;7.87;;
11614;SDS011;5863;52.832;4.758;2023-03-09T04:52:58;8.87;;;6.93;;
11614;SDS011;5863;52.832;4.758;2023-03-09T04:55:25;10.33;;;6.47;;
11614;SDS011;5863;52.832;4.758;2023-03-09T04:57:52;9.97;;;7.10;;
11614;SDS011;5863;52.832;4.758;2023-03-09T05:00:19;10.27;;;7.27;;
11614;SDS011;5863;52.832;4.758;2023-03-09T05:02:48;10.20;;;7.23;;
11614;SDS011;5863;52.832;4.758;2023-03-09T05:05:15;8.87;;;6.63;;
11614;SDS011;5863;52.832;4.758;2023-03-09T05:07:42;9.73;;;7.03;;
11614;SDS011;5863;52.832;4.758;2023-03-09T05:10:09;8.20;;;6.17;;
11614;SDS011;5863;52.832;4.758;2023-03-09T05:12:36;9.47;;;7.00;;
11614;SDS011;5863;52.832;4.758;2023-03-09T05:15:04;8.67;;;6.43;;
11614;SDS011;5863;52.832;4.758;2023-03-09T05:17:32;7.80;;;6.03;;
11614;SDS011;5863;52.832;4.758;2023-03-09T05:20:01;8.37;;;6.67;;
11614;SDS011;5863;52.832;4.758;2023-03-09T05:22:31;9.20;;;6.40;;
11614;SDS011;5863;52.832;4.758;2023-03-09T05:24:57;10.13;;;6.53;;
11614;SDS011;5863;52.832;4.758;2023-03-09T05:27:24;8.30;;;6.17;;
11614;SDS011;5863;52.832;4.758;2023-03-09T05:29:51;7.63;;;6.13;;
11614;SDS011;5863;52.832;4.758;2023-03-09T05:32:18;8.63;;;6.17;;
11614;SDS011;5863;52.832;4.758;2023-03-09T05:34:45;7.70;;;5.80;;
11614;SDS011;5863;52.832;4.758;2023-03-09T05:37:14;9.50;;;7.17;;
11614;SDS011;5863;52.832;4.758;2023-03-09T05:39:41;8.67;;;6.47;;
11614;SDS011;5863;52.832;4.758;2023-03-09T05:42:07;9.87;;;6.20;;
11614;SDS011;5863;52.832;4.758;2023-03-09T05:44:34;7.73;;;6.13;;
11614;SDS011;5863;52.832;4.758;2023-03-09T05:47:01;9.73;;;6.27;;
11614;SDS011;5863;52.832;4.758;2023-03-09T05:49:28;10.33;;;6.73;;
11614;SDS011;5863;52.832;4.758;2023-03-09T05:51:56;9.77;;;6.57;;
11614;SDS011;5863;52.832;4.758;2023-03-09T05:54:24;9.80;;;6.27;;
11614;SDS011;5863;52.832;4.758;2023-03-09T05:56:52;9.40;;;6.40;;
11614;SDS011;5863;52.832;4.758;2023-03-09T05:59:19;8.47;;;6.27;;
11614;SDS011;5863;52.832;4.758;2023-03-09T06:01:46;10.20;;;6.67;;
11614;SDS011;5863;52.832;4.758;2023-03-09T06:04:13;10.53;;;6.47;;
11614;SDS011;5863;52.832;4.758;2023-03-09T06:06:40;8.53;;;6.83;;
11614;SDS011;5863;52.832;4.758;2023-03-09T06:09:06;9.67;;;7.00;;
11614;SDS011;5863;52.832;4.758;2023-03-09T06:11:35;8.47;;;6.47;;
11614;SDS011;5863;52.832;4.758;2023-03-09T06:14:01;11.37;;;7.13;;
11614;SDS011;5863;52.832;4.758;2023-03-09T06:16:28;9.63;;;7.50;;
11614;SDS011;5863;52.832;4.758;2023-03-09T06:18:55;11.33;;;7.97;;
11614;SDS011;5863;52.832;4.758;2023-03-09T06:21:21;10.60;;;7.53;;
11614;SDS011;5863;52.832;4.758;2023-03-09T06:23:48;11.43;;;7.37;;
11614;SDS011;5863;52.832;4.758;2023-03-09T06:26:16;12.53;;;8.50;;
11614;SDS011;5863;52.832;4.758;2023-03-09T06:28:46;12.10;;;8.33;;
11614;SDS011;5863;52.832;4.758;2023-03-09T06:31:14;12.00;;;8.10;;
11614;SDS011;5863;52.832;4.758;2023-03-09T06:33:45;12.47;;;8.93;;
11614;SDS011;5863;52.832;4.758;2023-03-09T06:36:14;14.60;;;8.07;;
11614;SDS011;5863;52.832;4.758;2023-03-09T06:38:42;10.97;;;8.30;;
11614;SDS011;5863;52.832;4.758;2023-03-09T06:41:09;12.30;;;8.13;;
11614;SDS011;5863;52.832;4.758;2023-03-09T06:43:37;11.77;;;8.30;;
11614;SDS011;5863;52.832;4.758;2023-03-09T06:46:08;13.80;;;9.07;;
11614;SDS011;5863;52.832;4.758;2023-03-09T06:48:35;11.07;;;8.27;;
11614;SDS011;5863;52.832;4.758;2023-03-09T06:51:01;11.63;;;8.70;;
11614;SDS011;5863;52.832;4.758;2023-03-09T06:53:28;13.07;;;9.23;;
11614;SDS011;5863;52.832;4.758;2023-03-09T06:55:57;14.13;;;9.03;;
11614;SDS011;5863;52.832;4.758;2023-03-09T06:58:26;12.40;;;8.60;;
11614;SDS011;5863;52.832;4.758;2023-03-09T07:00:53;12.83;;;8.93;;
11614;SDS011;5863;52.832;4.758;2023-03-09T07:03:21;13.80;;;9.10;;
11614;SDS011;5863;52.832;4.758;2023-03-09T07:05:48;15.07;;;9.30;;
11614;SDS011;5863;52.832;4.758;2023-03-09T07:08:15;13.37;;;9.20;;
11614;SDS011;5863;52.832;4.758;2023-03-09T07:10:42;13.23;;;9.33;;
11614;SDS011;5863;52.832;4.758;2023-03-09T07:13:11;12.23;;;9.37;;
11614;SDS011;5863;52.832;4.758;2023-03-09T07:15:39;13.50;;;8.90;;
11614;SDS011;5863;52.832;4.758;2023-03-09T07:18:06;14.60;;;10.40;;
11614;SDS011;5863;52.832;4.758;2023-03-09T07:20:34;13.67;;;9.33;;
11614;SDS011;5863;52.832;4.758;2023-03-09T07:23:01;16.10;;;9.13;;
11614;SDS011;5863;52.832;4.758;2023-03-09T07:25:28;14.20;;;10.20;;
11614;SDS011;5863;52.832;4.758;2023-03-09T07:27:59;14.50;;;8.90;;
11614;SDS011;5863;52.832;4.758;2023-03-09T07:30:25;14.70;;;9.67;;
11614;SDS011;5863;52.832;4.758;2023-03-09T07:32:53;14.80;;;9.70;;
11614;SDS011;5863;52.832;4.758;2023-03-09T07:35:20;15.43;;;10.30;;
11614;SDS011;5863;52.832;4.758;2023-03-09T07:37:48;15.13;;;9.90;;
11614;SDS011;5863;52.832;4.758;2023-03-09T07:40:14;15.13;;;10.43;;
11614;SDS011;5863;52.832;4.758;2023-03-09T07:42:41;14.63;;;9.50;;
11614;SDS011;5863;52.832;4.758;2023-03-09T07:45:09;16.30;;;10.90;;
11614;SDS011;5863;52.832;4.758;2023-03-09T07:47:35;15.40;;;9.73;;
11614;SDS011;5863;52.832;4.758;2023-03-09T07:50:02;14.43;;;10.37;;
11614;SDS011;5863;52.832;4.758;2023-03-09T07:52:29;13.57;;;10.33;;
11614;SDS011;5863;52.832;4.758;2023-03-09T07:54:58;13.97;;;10.20;;
11614;SDS011;5863;52.832;4.758;2023-03-09T07:57:29;14.77;;;10.13;;
11614;SDS011;5863;52.832;4.758;2023-03-09T07:59:56;16.53;;;10.23;;
11614;SDS011;5863;52.832;4.758;2023-03-09T08:02:23;15.50;;;10.80;;
11614;SDS011;5863;52.832;4.758;2023-03-09T08:04:50;15.83;;;10.87;;
11614;SDS011;5863;52.832;4.758;2023-03-09T08:07:17;12.63;;;9.80;;
11614;SDS011;5863;52.832;4.758;2023-03-09T08:09:44;14.90;;;10.93;;
11614;SDS011;5863;52.832;4.758;2023-03-09T08:12:31;12.93;;;10.00;;
11614;SDS011;5863;52.832;4.758;2023-03-09T08:14:58;13.63;;;9.87;;
11614;SDS011;5863;52.832;4.758;2023-03-09T08:17:24;13.23;;;9.83;;
11614;SDS011;5863;52.832;4.758;2023-03-09T08:19:52;15.13;;;11.10;;
11614;SDS011;5863;52.832;4.758;2023-03-09T08:22:20;13.30;;;9.90;;
11614;SDS011;5863;52.832;4.758;2023-03-09T08:24:47;13.00;;;9.73;;
11614;SDS011;5863;52.832;4.758;2023-03-09T08:27:16;15.20;;;11.03;;
11614;SDS011;5863;52.832;4.758;2023-03-09T08:29:44;14.50;;;10.90;;
11614;SDS011;5863;52.832;4.758;2023-03-09T08:32:10;14.80;;;10.57;;
11614;SDS011;5863;52.832;4.758;2023-03-09T08:34:37;14.67;;;10.50;;
11614;SDS011;5863;52.832;4.758;2023-03-09T08:37:04;13.63;;;10.17;;
11614;SDS011;5863;52.832;4.758;2023-03-09T08:42:18;14.20;;;10.67;;
11614;SDS011;5863;52.832;4.758;2023-03-09T08:44:57;13.43;;;10.13;;
11614;SDS011;5863;52.832;4.758;2023-03-09T08:47:23;13.60;;;10.17;;
11614;SDS011;5863;52.832;4.758;2023-03-09T08:49:50;14.63;;;10.37;;
11614;SDS011;5863;52.832;4.758;2023-03-09T08:52:17;15.83;;;11.00;;
11614;SDS011;5863;52.832;4.758;2023-03-09T08:54:44;15.20;;;10.80;;
11614;SDS011;5863;52.832;4.758;2023-03-09T08:57:14;14.87;;;11.07;;
11614;SDS011;5863;52.832;4.758;2023-03-09T08:59:53;15.23;;;10.73;;
11614;SDS011;5863;52.832;4.758;2023-03-09T09:02:21;14.70;;;10.47;;
11614;SDS011;5863;52.832;4.758;2023-03-09T09:04:48;15.63;;;11.03;;
11614;SDS011;5863;52.832;4.758;2023-03-09T09:07:15;15.47;;;10.70;;
11614;SDS011;5863;52.832;4.758;2023-03-09T09:09:42;15.10;;;10.20;;
11614;SDS011;5863;52.832;4.758;2023-03-09T09:12:10;17.67;;;11.53;;
11614;SDS011;5863;52.832;4.758;2023-03-09T09:14:37;16.97;;;11.33;;
11614;SDS011;5863;52.832;4.758;2023-03-09T09:17:04;15.67;;;11.23;;
11614;SDS011;5863;52.832;4.758;2023-03-09T09:19:35;15.27;;;11.20;;
11614;SDS011;5863;52.832;4.758;2023-03-09T09:22:02;17.23;;;11.63;;
11614;SDS011;5863;52.832;4.758;2023-03-09T09:24:30;15.17;;;11.43;;
11614;SDS011;5863;52.832;4.758;2023-03-09T09:27:01;16.30;;;11.40;;
11614;SDS011;5863;52.832;4.758;2023-03-09T09:29:28;15.60;;;10.70;;
11614;SDS011;5863;52.832;4.758;2023-03-09T09:31:55;16.30;;;10.47;;
11614;SDS011;5863;52.832;4.758;2023-03-09T09:34:22;14.13;;;9.97;;
11614;SDS011;5863;52.832;4.758;2023-03-09T09:36:51;17.00;;;11.20;;
11614;SDS011;5863;52.832;4.758;2023-03-09T09:39:17;15.13;;;10.73;;
11614;SDS011;5863;52.832;4.758;2023-03-09T09:41:45;14.83;;;10.23;;
11614;SDS011;5863;52.832;4.758;2023-03-09T09:44:23;11.53;;;9.10;;
11614;SDS011;5863;52.832;4.758;2023-03-09T09:46:54;11.83;;;8.77;;
11614;SDS011;5863;52.832;4.758;2023-03-09T09:49:25;14.50;;;9.90;;
11614;SDS011;5863;52.832;4.758;2023-03-09T09:54:50;15.00;;;9.37;;
11614;SDS011;5863;52.832;4.758;2023-03-09T09:57:20;11.23;;;8.30;;
11614;SDS011;5863;52.832;4.758;2023-03-09T09:59:51;13.47;;;8.83;;
11614;SDS011;5863;52.832;4.758;2023-03-09T10:02:37;13.87;;;8.73;;
11614;SDS011;5863;52.832;4.758;2023-03-09T10:05:10;15.23;;;9.23;;
11614;SDS011;5863;52.832;4.758;2023-03-09T10:07:44;13.33;;;9.37;;
11614;SDS011;5863;52.832;4.758;2023-03-09T10:10:21;14.23;;;8.63;;
11614;SDS011;5863;52.832;4.758;2023-03-09T10:12:50;12.77;;;9.37;;
11614;SDS011;5863;52.832;4.758;2023-03-09T10:15:19;12.30;;;8.67;;
11614;SDS011;5863;52.832;4.758;2023-03-09T10:17:51;12.13;;;8.00;;
11614;SDS011;5863;52.832;4.758;2023-03-09T10:20:22;13.80;;;8.00;;
11614;SDS011;5863;52.832;4.758;2023-03-09T10:22:54;10.67;;;7.97;;
11614;SDS011;5863;52.832;4.758;2023-03-09T10:25:26;11.50;;;7.67;;
11614;SDS011;5863;52.832;4.758;2023-03-09T10:27:59;9.80;;;7.07;;
11614;SDS011;5863;52.832;4.758;2023-03-09T10:30:35;11.53;;;8.40;;
11614;SDS011;5863;52.832;4.758;2023-03-09T10:33:10;12.10;;;7.77;;
11614;SDS011;5863;52.832;4.758;2023-03-09T10:35:42;10.33;;;8.00;;
11614;SDS011;5863;52.832;4.758;2023-03-09T10:38:12;10.87;;;8.07;;
11614;SDS011;5863;52.832;4.758;2023-03-09T10:40:44;12.07;;;7.87;;
11614;SDS011;5863;52.832;4.758;2023-03-09T10:43:14;11.10;;;7.90;;
11614;SDS011;5863;52.832;4.758;2023-03-09T10:45:48;12.17;;;8.73;;
11614;SDS011;5863;52.832;4.758;2023-03-09T10:48:19;10.10;;;7.50;;
11614;SDS011;5863;52.832;4.758;2023-03-09T10:50:57;12.67;;;9.00;;
11614;SDS011;5863;52.832;4.758;2023-03-09T10:53:29;13.83;;;8.57;;
11614;SDS011;5863;52.832;4.758;2023-03-09T10:56:04;11.60;;;7.83;;
11614;SDS011;5863;52.832;4.758;2023-03-09T10:58:33;11.43;;;8.07;;
11614;SDS011;5863;52.832;4.758;2023-03-09T11:01:00;10.67;;;7.97;;
11614;SDS011;5863;52.832;4.758;2023-03-09T11:03:30;11.60;;;8.00;;
11614;SDS011;5863;52.832;4.758;2023-03-09T11:06:08;11.17;;;7.80;;
11614;SDS011;5863;52.832;4.758;2023-03-09T11:08:44;11.23;;;8.13;;
11614;SDS011;5863;52.832;4.758;2023-03-09T11:11:23;11.90;;;9.03;;
11614;SDS011;5863;52.832;4.758;2023-03-09T11:13:51;11.90;;;8.57;;
11614;SDS011;5863;52.832;4.758;2023-03-09T11:16:19;12.40;;;8.83;;
11614;SDS011;5863;52.832;4.758;2023-03-09T11:18:47;12.60;;;8.80;;
11614;SDS011;5863;52.832;4.758;2023-03-09T11:21:20;12.00;;;8.57;;
11614;SDS011;5863;52.832;4.758;2023-03-09T11:26:28;11.93;;;8.73;;
11614;SDS011;5863;52.832;4.758;2023-03-09T11:28:58;12.57;;;8.80;;
11614;SDS011;5863;52.832;4.758;2023-03-09T11:31:31;12.80;;;9.20;;
11614;SDS011;5863;52.832;4.758;2023-03-09T11:34:01;12.20;;;8.70;;
11614;SDS011;5863;52.832;4.758;2023-03-09T11:36:32;11.23;;;8.10;;
11614;SDS011;5863;52.832;4.758;2023-03-09T11:39:04;12.43;;;8.60;;
11614;SDS011;5863;52.832;4.758;2023-03-09T11:41:39;11.07;;;8.30;;
11614;SDS011;5863;52.832;4.758;2023-03-09T11:44:11;12.53;;;8.80;;
11614;SDS011;5863;52.832;4.758;2023-03-09T11:46:41;10.10;;;7.37;;
11614;SDS011;5863;52.832;4.758;2023-03-09T11:49:10;10.90;;;7.90;;
11614;SDS011;5863;52.832;4.758;2023-03-09T11:51:44;11.53;;;8.50;;
11614;SDS011;5863;52.832;4.758;2023-03-09T11:54:16;12.50;;;8.87;;
11614;SDS011;5863;52.832;4.758;2023-03-09T11:56:48;11.47;;;8.60;;
11614;SDS011;5863;52.832;4.758;2023-03-09T11:59:16;12.07;;;9.23;;
11614;SDS011;5863;52.832;4.758;2023-03-09T12:01:45;12.53;;;8.70;;
11614;SDS011;5863;52.832;4.758;2023-03-09T12:04:16;11.73;;;9.13;;
11614;SDS011;5863;52.832;4.758;2023-03-09T12:06:45;11.23;;;8.43;;
11614;SDS011;5863;52.832;4.758;2023-03-09T12:09:18;12.60;;;8.73;;
11614;SDS011;5863;52.832;4.758;2023-03-09T12:11:56;12.30;;;8.80;;
11614;SDS011;5863;52.832;4.758;2023-03-09T12:14:25;11.77;;;8.57;;
11614;SDS011;5863;52.832;4.758;2023-03-09T12:16:59;12.30;;;8.67;;
11614;SDS011;5863;52.832;4.758;2023-03-09T12:19:30;13.13;;;9.20;;
11614;SDS011;5863;52.832;4.758;2023-03-09T12:22:00;11.57;;;8.83;;
11614;SDS011;5863;52.832;4.758;2023-03-09T12:24:32;11.30;;;8.27;;
11614;SDS011;5863;52.832;4.758;2023-03-09T12:27:04;13.07;;;8.67;;
11614;SDS011;5863;52.832;4.758;2023-03-09T12:29:39;11.87;;;8.60;;
11614;SDS011;5863;52.832;4.758;2023-03-09T12:35:01;13.50;;;9.80;;
11614;SDS011;5863;52.832;4.758;2023-03-09T12:40:36;12.30;;;8.90;;
11614;SDS011;5863;52.832;4.758;2023-03-09T12:49:18;11.57;;;8.43;;
11614;SDS011;5863;52.832;4.758;2023-03-09T12:51:49;13.43;;;8.90;;
11614;SDS011;5863;52.832;4.758;2023-03-09T12:54:37;13.47;;;8.90;;
11614;SDS011;5863;52.832;4.758;2023-03-09T12:57:10;13.83;;;9.20;;
11614;SDS011;5863;52.832;4.758;2023-03-09T12:59:44;12.83;;;8.87;;
11614;SDS011;5863;52.832;4.758;2023-03-09T13:02:27;11.03;;;8.53;;
11614;SDS011;5863;52.832;4.758;2023-03-09T13:08:02;11.23;;;8.27;;
11614;SDS011;5863;52.832;4.758;2023-03-09T13:10:31;13.43;;;9.00;;
11614;SDS011;5863;52.832;4.758;2023-03-09T13:22:38;15.63;;;10.13;;
11614;SDS011;5863;52.832;4.758;2023-03-09T13:28:04;13.43;;;9.27;;
11614;SDS011;5863;52.832;4.758;2023-03-09T13:31:07;14.17;;;9.87;;
11614;SDS011;5863;52.832;4.758;2023-03-09T13:33:44;14.57;;;10.23;;
11614;SDS011;5863;52.832;4.758;2023-03-09T13:36:13;13.40;;;9.60;;
11614;SDS011;5863;52.832;4.758;2023-03-09T13:38:46;12.90;;;9.87;;
11614;SDS011;5863;52.832;4.758;2023-03-09T13:41:17;14.27;;;10.00;;
11614;SDS011;5863;52.832;4.758;2023-03-09T13:43:46;15.60;;;10.13;;
11614;SDS011;5863;52.832;4.758;2023-03-09T13:46:16;15.33;;;10.53;;
11614;SDS011;5863;52.832;4.758;2023-03-09T13:48:48;14.60;;;10.17;;
11614;SDS011;5863;52.832;4.758;2023-03-09T13:51:21;14.07;;;10.27;;
11614;SDS011;5863;52.832;4.758;2023-03-09T13:53:55;15.00;;;10.40;;
11614;SDS011;5863;52.832;4.758;2023-03-09T13:56:22;12.77;;;9.60;;
11614;SDS011;5863;52.832;4.758;2023-03-09T13:58:48;14.87;;;10.53;;
11614;SDS011;5863;52.832;4.758;2023-03-09T14:01:19;14.03;;;9.27;;
11614;SDS011;5863;52.832;4.758;2023-03-09T14:03:51;16.40;;;10.60;;
11614;SDS011;5863;52.832;4.758;2023-03-09T14:06:26;15.90;;;10.83;;
11614;SDS011;5863;52.832;4.758;2023-03-09T14:09:02;16.80;;;10.77;;
11614;SDS011;5863;52.832;4.758;2023-03-09T14:11:42;14.40;;;10.27;;
11614;SDS011;5863;52.832;4.758;2023-03-09T14:14:12;14.27;;;10.60;;
11614;SDS011;5863;52.832;4.758;2023-03-09T14:16:44;16.23;;;11.00;;
11614;SDS011;5863;52.832;4.758;2023-03-09T14:19:15;14.87;;;10.70;;
11614;SDS011;5863;52.832;4.758;2023-03-09T14:21:48;14.80;;;10.43;;
11614;SDS011;5863;52.832;4.758;2023-03-09T14:24:22;15.23;;;10.77;;
11614;SDS011;5863;52.832;4.758;2023-03-09T14:26:51;14.83;;;10.33;;
11614;SDS011;5863;52.832;4.758;2023-03-09T14:29:20;15.20;;;10.43;;
11614;SDS011;5863;52.832;4.758;2023-03-09T14:34:47;15.77;;;10.63;;
11614;SDS011;5863;52.832;4.758;2023-03-09T14:37:18;14.47;;;10.33;;
11614;SDS011;5863;52.832;4.758;2023-03-09T14:39:48;15.33;;;10.63;;
11614;SDS011;5863;52.832;4.758;2023-03-09T14:42:16;14.73;;;10.03;;
11614;SDS011;5863;52.832;4.758;2023-03-09T14:44:45;14.40;;;10.27;;
11614;SDS011;5863;52.832;4.758;2023-03-09T14:47:14;16.20;;;10.60;;
11614;SDS011;5863;52.832;4.758;2023-03-09T14:49:42;13.13;;;9.77;;
11614;SDS011;5863;52.832;4.758;2023-03-09T14:52:12;15.37;;;10.20;;
11614;SDS011;5863;52.832;4.758;2023-03-09T14:54:39;15.93;;;9.80;;
11614;SDS011;5863;52.832;4.758;2023-03-09T14:57:09;14.70;;;9.97;;
11614;SDS011;5863;52.832;4.758;2023-03-09T14:59:36;14.27;;;9.97;;
11614;SDS011;5863;52.832;4.758;2023-03-09T15:02:03;14.87;;;10.13;;
11614;SDS011;5863;52.832;4.758;2023-03-09T15:04:31;16.63;;;11.00;;
11614;SDS011;5863;52.832;4.758;2023-03-09T15:06:59;14.90;;;10.37;;
11614;SDS011;5863;52.832;4.758;2023-03-09T15:09:28;15.00;;;10.33;;
11614;SDS011;5863;52.832;4.758;2023-03-09T15:11:56;15.13;;;10.67;;
11614;SDS011;5863;52.832;4.758;2023-03-09T15:14:26;21.63;;;10.47;;
11614;SDS011;5863;52.832;4.758;2023-03-09T15:16:54;15.93;;;10.70;;
11614;SDS011;5863;52.832;4.758;2023-03-09T15:19:21;15.00;;;10.37;;
11614;SDS011;5863;52.832;4.758;2023-03-09T15:21:50;15.90;;;10.57;;
11614;SDS011;5863;52.832;4.758;2023-03-09T15:24:19;15.37;;;11.10;;
11614;SDS011;5863;52.832;4.758;2023-03-09T15:26:47;15.13;;;10.80;;
11614;SDS011;5863;52.832;4.758;2023-03-09T15:29:14;16.90;;;11.00;;
11614;SDS011;5863;52.832;4.758;2023-03-09T15:31:43;16.20;;;11.20;;
11614;SDS011;5863;52.832;4.758;2023-03-09T15:34:09;15.97;;;10.73;;
11614;SDS011;5863;52.832;4.758;2023-03-09T15:36:37;18.13;;;11.53;;
11614;SDS011;5863;52.832;4.758;2023-03-09T15:39:05;16.43;;;11.03;;